sensor_id;sensor_type;location;lat;lon;timestamp;temperature;humidity
16315;DHT22;8266;52.150;4.768;2022-09-03T00:00:08;22.90;59.10
16315;DHT22;8266;52.150;4.768;2022-09-03T00:02:39;22.90;59.30
16315;DHT22;8266;52.150;4.768;2022-09-03T00:05:15;22.80;59.10
16315;DHT22;8266;52.150;4.768;2022-09-03T00:07:48;22.80;59.40
16315;DHT22;8266;52.150;4.768;2022-09-03T00:10:24;22.80;59.40
16315;DHT22;8266;52.150;4.768;2022-09-03T00:12:58;22.80;59.60
16315;DHT22;8266;52.150;4.768;2022-09-03T00:15:27;22.70;59.60
16315;DHT22;8266;52.150;4.768;2022-09-03T00:18:00;22.70;59.60
16315;DHT22;8266;52.150;4.768;2022-09-03T00:20:33;22.60;59.80
16315;DHT22;8266;52.150;4.768;2022-09-03T00:23:05;22.60;59.90
16315;DHT22;8266;52.150;4.768;2022-09-03T00:25:37;22.60;59.90
16315;DHT22;8266;52.150;4.768;2022-09-03T00:28:11;22.60;60.10
16315;DHT22;8266;52.150;4.768;2022-09-03T00:30:41;22.50;60.10
16315;DHT22;8266;52.150;4.768;2022-09-03T00:33:17;22.50;60.20
16315;DHT22;8266;52.150;4.768;2022-09-03T00:36:01;22.40;60.30
16315;DHT22;8266;52.150;4.768;2022-09-03T00:38:28;22.40;60.50
16315;DHT22;8266;52.150;4.768;2022-09-03T00:41:04;22.40;60.60
16315;DHT22;8266;52.150;4.768;2022-09-03T00:43:45;22.30;60.80
16315;DHT22;8266;52.150;4.768;2022-09-03T00:46:22;22.30;61.00
16315;DHT22;8266;52.150;4.768;2022-09-03T00:51:47;22.30;61.20
16315;DHT22;8266;52.150;4.768;2022-09-03T00:54:22;22.20;61.20
16315;DHT22;8266;52.150;4.768;2022-09-03T00:56:57;22.20;61.20
16315;DHT22;8266;52.150;4.768;2022-09-03T00:59:37;22.20;61.40
16315;DHT22;8266;52.150;4.768;2022-09-03T01:02:16;22.10;61.50
16315;DHT22;8266;52.150;4.768;2022-09-03T01:04:51;22.10;61.90
16315;DHT22;8266;52.150;4.768;2022-09-03T01:07:40;22.00;61.90
16315;DHT22;8266;52.150;4.768;2022-09-03T01:10:29;22.00;61.90
16315;DHT22;8266;52.150;4.768;2022-09-03T01:13:08;22.00;61.90
16315;DHT22;8266;52.150;4.768;2022-09-03T01:15:44;21.90;61.80
16315;DHT22;8266;52.150;4.768;2022-09-03T01:18:21;21.90;61.80
16315;DHT22;8266;52.150;4.768;2022-09-03T01:20:57;21.90;61.80
16315;DHT22;8266;52.150;4.768;2022-09-03T01:23:48;21.90;61.90
16315;DHT22;8266;52.150;4.768;2022-09-03T01:26:28;21.90;62.10
16315;DHT22;8266;52.150;4.768;2022-09-03T01:29:13;21.80;62.00
16315;DHT22;8266;52.150;4.768;2022-09-03T01:31:50;21.80;62.10
16315;DHT22;8266;52.150;4.768;2022-09-03T01:34:33;21.80;62.30
16315;DHT22;8266;52.150;4.768;2022-09-03T01:37:10;21.70;62.40
16315;DHT22;8266;52.150;4.768;2022-09-03T01:39:45;21.70;62.40
16315;DHT22;8266;52.150;4.768;2022-09-03T01:42:21;21.70;62.70
16315;DHT22;8266;52.150;4.768;2022-09-03T01:45:08;21.60;62.70
16315;DHT22;8266;52.150;4.768;2022-09-03T01:47:52;21.60;62.70
16315;DHT22;8266;52.150;4.768;2022-09-03T01:50:30;21.60;63.00
16315;DHT22;8266;52.150;4.768;2022-09-03T01:53:06;21.50;63.00
16315;DHT22;8266;52.150;4.768;2022-09-03T01:55:46;21.50;63.10
16315;DHT22;8266;52.150;4.768;2022-09-03T01:58:19;21.60;63.40
16315;DHT22;8266;52.150;4.768;2022-09-03T02:00:51;21.50;63.30
16315;DHT22;8266;52.150;4.768;2022-09-03T02:03:23;21.50;63.50
16315;DHT22;8266;52.150;4.768;2022-09-03T02:05:55;21.40;63.70
16315;DHT22;8266;52.150;4.768;2022-09-03T02:08:22;21.40;63.70
16315;DHT22;8266;52.150;4.768;2022-09-03T02:10:52;21.40;64.00
16315;DHT22;8266;52.150;4.768;2022-09-03T02:13:25;21.30;64.30
16315;DHT22;8266;52.150;4.768;2022-09-03T02:15:56;21.30;64.50
16315;DHT22;8266;52.150;4.768;2022-09-03T02:18:29;21.30;64.60
16315;DHT22;8266;52.150;4.768;2022-09-03T02:20:59;21.30;64.70
16315;DHT22;8266;52.150;4.768;2022-09-03T02:23:28;21.30;64.60
16315;DHT22;8266;52.150;4.768;2022-09-03T02:25:57;21.30;64.80
16315;DHT22;8266;52.150;4.768;2022-09-03T02:28:27;21.30;65.00
16315;DHT22;8266;52.150;4.768;2022-09-03T02:30:56;21.30;65.00
16315;DHT22;8266;52.150;4.768;2022-09-03T02:33:24;21.30;64.90
16315;DHT22;8266;52.150;4.768;2022-09-03T02:35:52;21.30;65.10
16315;DHT22;8266;52.150;4.768;2022-09-03T02:38:21;21.30;65.10
16315;DHT22;8266;52.150;4.768;2022-09-03T02:40:50;21.30;65.10
16315;DHT22;8266;52.150;4.768;2022-09-03T02:43:22;21.20;65.20
16315;DHT22;8266;52.150;4.768;2022-09-03T02:45:53;21.20;65.30
16315;DHT22;8266;52.150;4.768;2022-09-03T02:48:23;21.20;65.30
16315;DHT22;8266;52.150;4.768;2022-09-03T02:50:50;21.20;65.20
16315;DHT22;8266;52.150;4.768;2022-09-03T02:53:17;21.20;65.20
16315;DHT22;8266;52.150;4.768;2022-09-03T02:55:45;21.20;65.50
16315;DHT22;8266;52.150;4.768;2022-09-03T02:58:12;21.20;65.60
16315;DHT22;8266;52.150;4.768;2022-09-03T03:00:39;21.20;65.60
16315;DHT22;8266;52.150;4.768;2022-09-03T03:03:06;21.20;65.70
16315;DHT22;8266;52.150;4.768;2022-09-03T03:05:42;21.10;65.70
16315;DHT22;8266;52.150;4.768;2022-09-03T03:08:09;21.10;65.80
16315;DHT22;8266;52.150;4.768;2022-09-03T03:10:39;21.10;65.80
16315;DHT22;8266;52.150;4.768;2022-09-03T03:13:06;21.10;65.90
16315;DHT22;8266;52.150;4.768;2022-09-03T03:15:33;21.10;66.10
16315;DHT22;8266;52.150;4.768;2022-09-03T03:18:00;21.00;66.20
16315;DHT22;8266;52.150;4.768;2022-09-03T03:20:28;21.00;66.50
16315;DHT22;8266;52.150;4.768;2022-09-03T03:23:02;21.00;66.40
16315;DHT22;8266;52.150;4.768;2022-09-03T03:25:31;21.00;66.50
16315;DHT22;8266;52.150;4.768;2022-09-03T03:27:58;20.80;66.40
16315;DHT22;8266;52.150;4.768;2022-09-03T03:30:28;20.90;66.60
16315;DHT22;8266;52.150;4.768;2022-09-03T03:32:55;20.90;66.80
16315;DHT22;8266;52.150;4.768;2022-09-03T03:35:23;20.90;66.80
16315;DHT22;8266;52.150;4.768;2022-09-03T03:37:50;20.90;66.90
16315;DHT22;8266;52.150;4.768;2022-09-03T03:40:19;20.90;67.00
16315;DHT22;8266;52.150;4.768;2022-09-03T03:42:45;20.90;67.00
16315;DHT22;8266;52.150;4.768;2022-09-03T03:45:13;20.80;66.90
16315;DHT22;8266;52.150;4.768;2022-09-03T03:47:40;20.80;67.40
16315;DHT22;8266;52.150;4.768;2022-09-03T03:50:08;20.80;67.50
16315;DHT22;8266;52.150;4.768;2022-09-03T03:52:35;20.80;67.60
16315;DHT22;8266;52.150;4.768;2022-09-03T03:55:02;20.70;67.60
16315;DHT22;8266;52.150;4.768;2022-09-03T03:57:30;20.70;67.90
16315;DHT22;8266;52.150;4.768;2022-09-03T03:59:57;20.70;68.00
16315;DHT22;8266;52.150;4.768;2022-09-03T04:02:24;20.70;68.10
16315;DHT22;8266;52.150;4.768;2022-09-03T04:04:51;20.60;68.10
16315;DHT22;8266;52.150;4.768;2022-09-03T04:07:19;20.60;68.30
16315;DHT22;8266;52.150;4.768;2022-09-03T04:09:46;20.60;68.40
16315;DHT22;8266;52.150;4.768;2022-09-03T04:12:13;20.60;68.60
16315;DHT22;8266;52.150;4.768;2022-09-03T04:14:42;20.50;68.50
16315;DHT22;8266;52.150;4.768;2022-09-03T04:17:09;20.50;68.70
16315;DHT22;8266;52.150;4.768;2022-09-03T04:19:36;20.50;69.10
16315;DHT22;8266;52.150;4.768;2022-09-03T04:22:03;20.40;69.10
16315;DHT22;8266;52.150;4.768;2022-09-03T04:24:30;20.40;69.10
16315;DHT22;8266;52.150;4.768;2022-09-03T04:26:57;20.40;69.20
16315;DHT22;8266;52.150;4.768;2022-09-03T04:29:24;20.40;69.40
16315;DHT22;8266;52.150;4.768;2022-09-03T04:31:52;20.30;69.50
16315;DHT22;8266;52.150;4.768;2022-09-03T04:34:37;20.30;69.90
16315;DHT22;8266;52.150;4.768;2022-09-03T04:37:03;20.30;69.70
16315;DHT22;8266;52.150;4.768;2022-09-03T04:39:30;20.20;69.70
16315;DHT22;8266;52.150;4.768;2022-09-03T04:41:58;20.20;69.90
16315;DHT22;8266;52.150;4.768;2022-09-03T04:44:25;20.20;70.10
16315;DHT22;8266;52.150;4.768;2022-09-03T04:46:53;20.20;70.40
16315;DHT22;8266;52.150;4.768;2022-09-03T04:49:20;20.20;70.70
16315;DHT22;8266;52.150;4.768;2022-09-03T04:51:49;20.10;70.70
16315;DHT22;8266;52.150;4.768;2022-09-03T04:54:15;20.10;71.10
16315;DHT22;8266;52.150;4.768;2022-09-03T04:56:42;20.10;71.20
16315;DHT22;8266;52.150;4.768;2022-09-03T04:59:09;20.10;71.20
16315;DHT22;8266;52.150;4.768;2022-09-03T05:01:38;20.10;71.40
16315;DHT22;8266;52.150;4.768;2022-09-03T05:04:07;20.10;71.60
16315;DHT22;8266;52.150;4.768;2022-09-03T05:06:35;20.10;71.80
16315;DHT22;8266;52.150;4.768;2022-09-03T05:09:03;20.10;71.70
16315;DHT22;8266;52.150;4.768;2022-09-03T05:11:30;20.10;72.10
16315;DHT22;8266;52.150;4.768;2022-09-03T05:13:58;20.20;72.20
16315;DHT22;8266;52.150;4.768;2022-09-03T05:16:27;20.10;72.50
16315;DHT22;8266;52.150;4.768;2022-09-03T05:18:58;20.10;72.60
16315;DHT22;8266;52.150;4.768;2022-09-03T05:21:27;20.10;72.50
16315;DHT22;8266;52.150;4.768;2022-09-03T05:23:55;20.10;72.90
16315;DHT22;8266;52.150;4.768;2022-09-03T05:26:24;20.10;73.00
16315;DHT22;8266;52.150;4.768;2022-09-03T05:28:53;20.10;73.10
16315;DHT22;8266;52.150;4.768;2022-09-03T05:31:22;20.10;73.40
16315;DHT22;8266;52.150;4.768;2022-09-03T05:33:52;20.10;73.60
16315;DHT22;8266;52.150;4.768;2022-09-03T05:36:21;20.10;73.70
16315;DHT22;8266;52.150;4.768;2022-09-03T05:38:53;20.10;73.70
16315;DHT22;8266;52.150;4.768;2022-09-03T05:41:27;20.10;74.20
16315;DHT22;8266;52.150;4.768;2022-09-03T05:43:55;20.10;74.10
16315;DHT22;8266;52.150;4.768;2022-09-03T05:46:24;20.10;74.50
16315;DHT22;8266;52.150;4.768;2022-09-03T05:48:56;20.10;74.40
16315;DHT22;8266;52.150;4.768;2022-09-03T05:51:23;20.10;74.70
16315;DHT22;8266;52.150;4.768;2022-09-03T05:53:52;20.10;74.90
16315;DHT22;8266;52.150;4.768;2022-09-03T05:56:21;20.10;74.90
16315;DHT22;8266;52.150;4.768;2022-09-03T05:58:50;20.10;75.20
16315;DHT22;8266;52.150;4.768;2022-09-03T06:01:18;20.20;75.40
16315;DHT22;8266;52.150;4.768;2022-09-03T06:03:47;20.20;75.60
16315;DHT22;8266;52.150;4.768;2022-09-03T06:06:17;20.10;75.70
16315;DHT22;8266;52.150;4.768;2022-09-03T06:08:48;20.20;76.00
16315;DHT22;8266;52.150;4.768;2022-09-03T06:11:17;20.20;76.80
16315;DHT22;8266;52.150;4.768;2022-09-03T06:13:44;20.20;76.50
16315;DHT22;8266;52.150;4.768;2022-09-03T06:16:12;20.20;76.50
16315;DHT22;8266;52.150;4.768;2022-09-03T06:18:39;20.20;76.70
16315;DHT22;8266;52.150;4.768;2022-09-03T06:21:06;20.20;76.80
16315;DHT22;8266;52.150;4.768;2022-09-03T06:23:34;20.20;76.80
16315;DHT22;8266;52.150;4.768;2022-09-03T06:26:03;20.30;77.20
16315;DHT22;8266;52.150;4.768;2022-09-03T06:28:31;20.20;77.30
16315;DHT22;8266;52.150;4.768;2022-09-03T06:31:01;20.30;77.60
16315;DHT22;8266;52.150;4.768;2022-09-03T06:33:28;20.30;77.70
16315;DHT22;8266;52.150;4.768;2022-09-03T06:35:56;20.30;77.90
16315;DHT22;8266;52.150;4.768;2022-09-03T06:38:24;20.30;77.70
16315;DHT22;8266;52.150;4.768;2022-09-03T06:40:53;20.30;77.90
16315;DHT22;8266;52.150;4.768;2022-09-03T06:43:21;20.30;78.00
16315;DHT22;8266;52.150;4.768;2022-09-03T06:45:58;20.30;78.00
16315;DHT22;8266;52.150;4.768;2022-09-03T06:48:25;20.40;78.30
16315;DHT22;8266;52.150;4.768;2022-09-03T06:50:54;20.40;78.00
16315;DHT22;8266;52.150;4.768;2022-09-03T06:53:23;20.40;77.90
16315;DHT22;8266;52.150;4.768;2022-09-03T06:55:54;20.50;78.20
16315;DHT22;8266;52.150;4.768;2022-09-03T06:58:21;20.50;78.50
16315;DHT22;8266;52.150;4.768;2022-09-03T07:00:49;20.60;78.40
16315;DHT22;8266;52.150;4.768;2022-09-03T07:03:19;20.60;78.60
16315;DHT22;8266;52.150;4.768;2022-09-03T07:05:46;20.60;78.80
16315;DHT22;8266;52.150;4.768;2022-09-03T07:08:13;20.70;78.80
16315;DHT22;8266;52.150;4.768;2022-09-03T07:10:44;20.70;79.30
16315;DHT22;8266;52.150;4.768;2022-09-03T07:13:12;20.80;79.50
16315;DHT22;8266;52.150;4.768;2022-09-03T07:15:39;20.90;80.00
16315;DHT22;8266;52.150;4.768;2022-09-03T07:18:06;21.00;80.20
16315;DHT22;8266;52.150;4.768;2022-09-03T07:20:35;21.10;80.20
16315;DHT22;8266;52.150;4.768;2022-09-03T07:23:02;21.30;80.10
16315;DHT22;8266;52.150;4.768;2022-09-03T07:25:29;21.50;80.50
16315;DHT22;8266;52.150;4.768;2022-09-03T07:27:56;21.70;80.70
16315;DHT22;8266;52.150;4.768;2022-09-03T07:30:24;22.00;80.70
16315;DHT22;8266;52.150;4.768;2022-09-03T07:32:52;22.30;80.60
16315;DHT22;8266;52.150;4.768;2022-09-03T07:35:19;22.60;80.20
16315;DHT22;8266;52.150;4.768;2022-09-03T07:37:51;22.80;80.10
16315;DHT22;8266;52.150;4.768;2022-09-03T07:40:19;23.20;78.90
16315;DHT22;8266;52.150;4.768;2022-09-03T07:42:46;23.50;79.30
16315;DHT22;8266;52.150;4.768;2022-09-03T07:45:14;23.80;78.70
16315;DHT22;8266;52.150;4.768;2022-09-03T07:47:47;24.20;78.40
16315;DHT22;8266;52.150;4.768;2022-09-03T07:50:14;24.60;73.40
16315;DHT22;8266;52.150;4.768;2022-09-03T07:52:42;24.90;72.20
16315;DHT22;8266;52.150;4.768;2022-09-03T07:55:10;25.30;72.00
16315;DHT22;8266;52.150;4.768;2022-09-03T07:57:37;25.60;69.60
16315;DHT22;8266;52.150;4.768;2022-09-03T08:00:05;25.80;69.10
16315;DHT22;8266;52.150;4.768;2022-09-03T08:02:32;26.10;68.70
16315;DHT22;8266;52.150;4.768;2022-09-03T08:04:59;26.40;68.70
16315;DHT22;8266;52.150;4.768;2022-09-03T08:07:29;26.70;68.20
16315;DHT22;8266;52.150;4.768;2022-09-03T08:09:56;27.00;67.10
16315;DHT22;8266;52.150;4.768;2022-09-03T08:12:25;27.30;67.90
16315;DHT22;8266;52.150;4.768;2022-09-03T08:14:56;27.60;66.30
16315;DHT22;8266;52.150;4.768;2022-09-03T08:17:33;27.90;65.70
16315;DHT22;8266;52.150;4.768;2022-09-03T08:20:01;28.30;66.00
16315;DHT22;8266;52.150;4.768;2022-09-03T08:22:28;28.60;65.00
16315;DHT22;8266;52.150;4.768;2022-09-03T08:24:55;28.90;64.10
16315;DHT22;8266;52.150;4.768;2022-09-03T08:27:22;29.00;63.10
16315;DHT22;8266;52.150;4.768;2022-09-03T08:29:52;29.20;60.10
16315;DHT22;8266;52.150;4.768;2022-09-03T08:32:19;29.30;58.80
16315;DHT22;8266;52.150;4.768;2022-09-03T08:34:46;29.30;59.10
16315;DHT22;8266;52.150;4.768;2022-09-03T08:37:13;29.20;59.00
16315;DHT22;8266;52.150;4.768;2022-09-03T08:39:40;29.10;58.90
16315;DHT22;8266;52.150;4.768;2022-09-03T08:44:59;29.00;58.00
16315;DHT22;8266;52.150;4.768;2022-09-03T08:47:31;28.90;58.30
16315;DHT22;8266;52.150;4.768;2022-09-03T08:50:03;28.90;58.20
16315;DHT22;8266;52.150;4.768;2022-09-03T08:52:33;28.70;57.60
16315;DHT22;8266;52.150;4.768;2022-09-03T08:55:21;28.60;57.70
16315;DHT22;8266;52.150;4.768;2022-09-03T08:57:52;28.60;57.90
16315;DHT22;8266;52.150;4.768;2022-09-03T09:00:22;28.50;58.00
16315;DHT22;8266;52.150;4.768;2022-09-03T09:03:00;28.50;58.20
16315;DHT22;8266;52.150;4.768;2022-09-03T09:05:41;28.50;57.70
16315;DHT22;8266;52.150;4.768;2022-09-03T09:08:15;28.60;58.10
16315;DHT22;8266;52.150;4.768;2022-09-03T09:10:46;28.60;57.70
16315;DHT22;8266;52.150;4.768;2022-09-03T09:13:21;28.60;57.80
16315;DHT22;8266;52.150;4.768;2022-09-03T09:16:01;28.70;58.40
16315;DHT22;8266;52.150;4.768;2022-09-03T09:18:40;28.80;58.00
16315;DHT22;8266;52.150;4.768;2022-09-03T09:21:14;28.80;57.70
16315;DHT22;8266;52.150;4.768;2022-09-03T09:23:45;28.90;57.80
16315;DHT22;8266;52.150;4.768;2022-09-03T09:26:15;29.00;57.80
16315;DHT22;8266;52.150;4.768;2022-09-03T09:28:45;29.10;58.10
16315;DHT22;8266;52.150;4.768;2022-09-03T09:31:15;29.20;58.00
16315;DHT22;8266;52.150;4.768;2022-09-03T09:33:43;29.30;57.70
16315;DHT22;8266;52.150;4.768;2022-09-03T09:36:12;29.50;57.50
16315;DHT22;8266;52.150;4.768;2022-09-03T09:38:42;29.60;57.90
16315;DHT22;8266;52.150;4.768;2022-09-03T09:41:11;29.70;57.50
16315;DHT22;8266;52.150;4.768;2022-09-03T09:43:39;29.90;57.00
16315;DHT22;8266;52.150;4.768;2022-09-03T09:46:11;30.00;56.80
16315;DHT22;8266;52.150;4.768;2022-09-03T09:48:47;30.10;57.00
16315;DHT22;8266;52.150;4.768;2022-09-03T09:51:18;30.20;56.50
16315;DHT22;8266;52.150;4.768;2022-09-03T09:53:45;30.30;56.60
16315;DHT22;8266;52.150;4.768;2022-09-03T09:56:20;30.40;56.20
16315;DHT22;8266;52.150;4.768;2022-09-03T09:58:47;30.50;56.00
16315;DHT22;8266;52.150;4.768;2022-09-03T10:01:19;30.50;56.00
16315;DHT22;8266;52.150;4.768;2022-09-03T10:03:53;30.60;55.90
16315;DHT22;8266;52.150;4.768;2022-09-03T10:06:23;30.70;55.80
16315;DHT22;8266;52.150;4.768;2022-09-03T10:09:10;30.80;56.00
16315;DHT22;8266;52.150;4.768;2022-09-03T10:11:42;31.00;56.60
16315;DHT22;8266;52.150;4.768;2022-09-03T10:14:16;31.10;56.10
16315;DHT22;8266;52.150;4.768;2022-09-03T10:17:19;31.40;55.40
16315;DHT22;8266;52.150;4.768;2022-09-03T10:20:53;31.50;55.60
16315;DHT22;8266;52.150;4.768;2022-09-03T10:23:34;31.80;56.00
16315;DHT22;8266;52.150;4.768;2022-09-03T10:26:09;31.90;55.90
16315;DHT22;8266;52.150;4.768;2022-09-03T10:28:38;32.10;55.00
16315;DHT22;8266;52.150;4.768;2022-09-03T10:31:35;32.20;54.50
16315;DHT22;8266;52.150;4.768;2022-09-03T10:34:09;32.30;53.40
16315;DHT22;8266;52.150;4.768;2022-09-03T10:36:47;32.40;54.20
16315;DHT22;8266;52.150;4.768;2022-09-03T10:39:21;32.40;54.20
16315;DHT22;8266;52.150;4.768;2022-09-03T10:41:58;32.40;52.90
16315;DHT22;8266;52.150;4.768;2022-09-03T10:44:43;32.50;53.70
16315;DHT22;8266;52.150;4.768;2022-09-03T10:47:25;32.60;53.80
16315;DHT22;8266;52.150;4.768;2022-09-03T10:50:02;32.60;53.80
16315;DHT22;8266;52.150;4.768;2022-09-03T10:52:46;32.60;53.50
16315;DHT22;8266;52.150;4.768;2022-09-03T10:55:27;32.60;52.70
16315;DHT22;8266;52.150;4.768;2022-09-03T10:58:04;32.60;52.60
16315;DHT22;8266;52.150;4.768;2022-09-03T11:00:34;32.60;52.00
16315;DHT22;8266;52.150;4.768;2022-09-03T11:03:32;32.60;52.30
16315;DHT22;8266;52.150;4.768;2022-09-03T11:06:08;32.50;50.30
16315;DHT22;8266;52.150;4.768;2022-09-03T11:08:41;32.40;51.50
16315;DHT22;8266;52.150;4.768;2022-09-03T11:11:13;32.30;51.30
16315;DHT22;8266;52.150;4.768;2022-09-03T11:13:47;32.20;50.60
16315;DHT22;8266;52.150;4.768;2022-09-03T11:16:17;32.10;50.90
16315;DHT22;8266;52.150;4.768;2022-09-03T11:18:48;31.90;50.80
16315;DHT22;8266;52.150;4.768;2022-09-03T11:21:19;31.80;51.50
16315;DHT22;8266;52.150;4.768;2022-09-03T11:23:52;31.60;51.70
16315;DHT22;8266;52.150;4.768;2022-09-03T11:26:25;31.50;51.70
16315;DHT22;8266;52.150;4.768;2022-09-03T11:28:57;31.40;51.60
16315;DHT22;8266;52.150;4.768;2022-09-03T11:31:32;31.30;51.30
16315;DHT22;8266;52.150;4.768;2022-09-03T11:34:07;31.20;51.60
16315;DHT22;8266;52.150;4.768;2022-09-03T11:36:36;31.10;51.90
16315;DHT22;8266;52.150;4.768;2022-09-03T11:39:18;31.10;52.00
16315;DHT22;8266;52.150;4.768;2022-09-03T11:41:56;31.10;52.10
16315;DHT22;8266;52.150;4.768;2022-09-03T11:44:34;31.20;52.40
16315;DHT22;8266;52.150;4.768;2022-09-03T11:47:13;31.20;51.70
16315;DHT22;8266;52.150;4.768;2022-09-03T11:49:44;31.20;51.70
16315;DHT22;8266;52.150;4.768;2022-09-03T11:52:25;31.20;51.80
16315;DHT22;8266;52.150;4.768;2022-09-03T11:54:54;31.20;52.30
16315;DHT22;8266;52.150;4.768;2022-09-03T11:57:26;31.30;52.00
16315;DHT22;8266;52.150;4.768;2022-09-03T12:00:06;31.30;51.50
16315;DHT22;8266;52.150;4.768;2022-09-03T12:02:36;31.40;51.20
16315;DHT22;8266;52.150;4.768;2022-09-03T12:05:16;31.30;51.60
16315;DHT22;8266;52.150;4.768;2022-09-03T12:08:17;31.40;51.20
16315;DHT22;8266;52.150;4.768;2022-09-03T12:10:58;31.40;51.90
16315;DHT22;8266;52.150;4.768;2022-09-03T12:13:45;31.40;51.90
16315;DHT22;8266;52.150;4.768;2022-09-03T12:16:44;31.50;51.70
16315;DHT22;8266;52.150;4.768;2022-09-03T12:19:19;31.50;52.00
16315;DHT22;8266;52.150;4.768;2022-09-03T12:21:50;31.60;52.30
16315;DHT22;8266;52.150;4.768;2022-09-03T12:24:18;31.60;52.10
16315;DHT22;8266;52.150;4.768;2022-09-03T12:26:49;31.70;51.50
16315;DHT22;8266;52.150;4.768;2022-09-03T12:29:23;31.70;51.80
16315;DHT22;8266;52.150;4.768;2022-09-03T12:31:50;31.70;52.20
16315;DHT22;8266;52.150;4.768;2022-09-03T12:34:19;31.80;52.00
16315;DHT22;8266;52.150;4.768;2022-09-03T12:36:49;31.90;52.30
16315;DHT22;8266;52.150;4.768;2022-09-03T12:39:17;32.00;51.80
16315;DHT22;8266;52.150;4.768;2022-09-03T12:41:59;32.10;51.20
16315;DHT22;8266;52.150;4.768;2022-09-03T12:44:30;32.10;50.80
16315;DHT22;8266;52.150;4.768;2022-09-03T12:47:05;32.00;51.10
16315;DHT22;8266;52.150;4.768;2022-09-03T12:49:36;32.00;50.90
16315;DHT22;8266;52.150;4.768;2022-09-03T12:52:08;32.00;51.00
16315;DHT22;8266;52.150;4.768;2022-09-03T12:54:43;32.00;51.00
16315;DHT22;8266;52.150;4.768;2022-09-03T12:57:18;32.00;51.10
16315;DHT22;8266;52.150;4.768;2022-09-03T12:59:46;31.90;50.70
16315;DHT22;8266;52.150;4.768;2022-09-03T13:02:17;31.90;51.30
16315;DHT22;8266;52.150;4.768;2022-09-03T13:04:46;31.90;50.60
16315;DHT22;8266;52.150;4.768;2022-09-03T13:07:22;31.90;50.80
16315;DHT22;8266;52.150;4.768;2022-09-03T13:09:51;31.80;50.90
16315;DHT22;8266;52.150;4.768;2022-09-03T13:12:28;31.80;50.90
16315;DHT22;8266;52.150;4.768;2022-09-03T13:14:56;31.80;51.00
16315;DHT22;8266;52.150;4.768;2022-09-03T13:17:41;31.90;51.20
16315;DHT22;8266;52.150;4.768;2022-09-03T13:20:27;31.90;51.10
16315;DHT22;8266;52.150;4.768;2022-09-03T13:23:10;31.90;51.00
16315;DHT22;8266;52.150;4.768;2022-09-03T13:25:47;32.10;51.00
16315;DHT22;8266;52.150;4.768;2022-09-03T13:28:29;32.10;51.10
16315;DHT22;8266;52.150;4.768;2022-09-03T13:31:09;32.10;51.10
16315;DHT22;8266;52.150;4.768;2022-09-03T13:33:50;32.20;51.20
16315;DHT22;8266;52.150;4.768;2022-09-03T13:36:21;32.30;51.10
16315;DHT22;8266;52.150;4.768;2022-09-03T13:38:53;32.30;51.20
16315;DHT22;8266;52.150;4.768;2022-09-03T13:41:33;32.40;51.10
16315;DHT22;8266;52.150;4.768;2022-09-03T13:44:07;32.40;51.00
16315;DHT22;8266;52.150;4.768;2022-09-03T13:46:42;32.50;51.20
16315;DHT22;8266;52.150;4.768;2022-09-03T13:49:22;32.50;50.70
16315;DHT22;8266;52.150;4.768;2022-09-03T13:52:14;32.60;50.60
16315;DHT22;8266;52.150;4.768;2022-09-03T13:54:45;32.60;50.00
16315;DHT22;8266;52.150;4.768;2022-09-03T13:57:25;32.50;50.40
16315;DHT22;8266;52.150;4.768;2022-09-03T13:59:59;32.50;50.60
16315;DHT22;8266;52.150;4.768;2022-09-03T14:02:32;32.50;50.60
16315;DHT22;8266;52.150;4.768;2022-09-03T14:05:09;32.50;50.60
16315;DHT22;8266;52.150;4.768;2022-09-03T14:07:46;32.50;50.50
16315;DHT22;8266;52.150;4.768;2022-09-03T14:10:22;32.50;50.40
16315;DHT22;8266;52.150;4.768;2022-09-03T14:12:59;32.50;50.50
16315;DHT22;8266;52.150;4.768;2022-09-03T14:15:32;32.50;50.30
16315;DHT22;8266;52.150;4.768;2022-09-03T14:18:09;32.60;50.20
16315;DHT22;8266;52.150;4.768;2022-09-03T14:20:43;32.60;50.30
16315;DHT22;8266;52.150;4.768;2022-09-03T14:23:24;32.70;50.70
16315;DHT22;8266;52.150;4.768;2022-09-03T14:25:52;32.80;50.50
16315;DHT22;8266;52.150;4.768;2022-09-03T14:28:28;32.90;50.40
16315;DHT22;8266;52.150;4.768;2022-09-03T14:31:05;33.00;50.40
16315;DHT22;8266;52.150;4.768;2022-09-03T14:33:42;33.00;50.00
16315;DHT22;8266;52.150;4.768;2022-09-03T14:36:19;33.10;49.60
16315;DHT22;8266;52.150;4.768;2022-09-03T14:39:07;33.10;49.30
16315;DHT22;8266;52.150;4.768;2022-09-03T14:41:56;33.10;48.90
16315;DHT22;8266;52.150;4.768;2022-09-03T14:44:34;33.10;49.20
16315;DHT22;8266;52.150;4.768;2022-09-03T14:47:18;33.10;49.30
16315;DHT22;8266;52.150;4.768;2022-09-03T14:50:11;33.10;49.50
16315;DHT22;8266;52.150;4.768;2022-09-03T14:52:55;33.20;49.70
16315;DHT22;8266;52.150;4.768;2022-09-03T14:55:37;33.20;49.50
16315;DHT22;8266;52.150;4.768;2022-09-03T14:58:23;33.20;49.30
16315;DHT22;8266;52.150;4.768;2022-09-03T15:00:59;33.20;49.60
16315;DHT22;8266;52.150;4.768;2022-09-03T15:06:57;33.30;49.60
16315;DHT22;8266;52.150;4.768;2022-09-03T15:09:31;33.40;49.40
16315;DHT22;8266;52.150;4.768;2022-09-03T15:12:07;33.40;48.90
16315;DHT22;8266;52.150;4.768;2022-09-03T15:14:39;33.40;49.00
16315;DHT22;8266;52.150;4.768;2022-09-03T15:17:24;33.40;48.80
16315;DHT22;8266;52.150;4.768;2022-09-03T15:20:03;33.40;49.10
16315;DHT22;8266;52.150;4.768;2022-09-03T15:22:55;33.50;48.70
16315;DHT22;8266;52.150;4.768;2022-09-03T15:25:44;33.50;49.00
16315;DHT22;8266;52.150;4.768;2022-09-03T15:28:18;33.60;48.80
16315;DHT22;8266;52.150;4.768;2022-09-03T15:31:00;33.60;49.00
16315;DHT22;8266;52.150;4.768;2022-09-03T15:34:15;33.60;48.50
16315;DHT22;8266;52.150;4.768;2022-09-03T15:39:44;33.70;48.20
16315;DHT22;8266;52.150;4.768;2022-09-03T15:42:47;33.70;48.00
16315;DHT22;8266;52.150;4.768;2022-09-03T15:48:33;33.80;47.40
16315;DHT22;8266;52.150;4.768;2022-09-03T15:51:19;33.70;47.60
16315;DHT22;8266;52.150;4.768;2022-09-03T15:54:11;33.60;47.20
16315;DHT22;8266;52.150;4.768;2022-09-03T15:56:48;33.60;47.50
16315;DHT22;8266;52.150;4.768;2022-09-03T15:59:20;33.50;47.20
16315;DHT22;8266;52.150;4.768;2022-09-03T16:01:53;33.50;47.70
16315;DHT22;8266;52.150;4.768;2022-09-03T16:04:38;33.50;47.20
16315;DHT22;8266;52.150;4.768;2022-09-03T16:07:13;33.50;47.70
16315;DHT22;8266;52.150;4.768;2022-09-03T16:09:48;33.50;47.90
16315;DHT22;8266;52.150;4.768;2022-09-03T16:15:58;33.70;48.10
16315;DHT22;8266;52.150;4.768;2022-09-03T16:18:59;33.90;48.60
16315;DHT22;8266;52.150;4.768;2022-09-03T16:21:47;33.90;48.20
16315;DHT22;8266;52.150;4.768;2022-09-03T16:24:20;33.80;47.30
16315;DHT22;8266;52.150;4.768;2022-09-03T16:26:52;33.70;47.30
16315;DHT22;8266;52.150;4.768;2022-09-03T16:29:27;33.70;47.80
16315;DHT22;8266;52.150;4.768;2022-09-03T16:32:19;33.50;47.90
16315;DHT22;8266;52.150;4.768;2022-09-03T16:35:02;33.40;48.40
16315;DHT22;8266;52.150;4.768;2022-09-03T16:37:42;33.40;48.40
16315;DHT22;8266;52.150;4.768;2022-09-03T16:40:17;33.30;48.90
16315;DHT22;8266;52.150;4.768;2022-09-03T16:42:51;33.30;48.60